createdAt,value
2018-06-19T00:01:32.267Z,94.72
2018-06-19T00:04:01.319Z,94.58
2018-06-19T00:06:30.412Z,94.72
2018-06-19T00:08:59.467Z,97.20
2018-06-19T00:11:28.580Z,95.25
2018-06-19T00:13:57.314Z,95.65
2018-06-19T00:16:26.249Z,93.82
2018-06-19T00:18:56.302Z,92.57
2018-06-19T00:21:29.388Z,94.70
2018-06-19T00:23:58.452Z,93.47
2018-06-19T00:26:27.235Z,94.80
2018-06-19T00:28:56.252Z,94.70
2018-06-19T00:31:25.348Z,93.50
2018-06-19T00:33:54.359Z,93.27
2018-06-19T00:36:23.404Z,96.47
2018-06-19T00:38:52.442Z,96.08
2018-06-19T00:41:21.484Z,97.57
2018-06-19T00:43:50.492Z,97.12
2018-06-19T00:46:21.411Z,96.90
2018-06-19T00:48:50.456Z,96.57
2018-06-19T00:51:19.525Z,96.28
2018-06-19T00:53:48.286Z,101.75
2018-06-19T00:56:28.408Z,99.65
2018-06-19T00:58:57.400Z,96.65
2018-06-19T01:01:26.418Z,98.55
2018-06-19T01:03:55.515Z,97.33
2018-06-19T01:06:24.556Z,100.27
2018-06-19T01:08:53.571Z,99.13
2018-06-19T01:11:22.599Z,97.20
2018-06-19T01:13:51.636Z,98.70
2018-06-19T01:16:20.675Z,97.72
2018-06-19T01:18:49.741Z,99.67
2018-06-19T01:21:18.759Z,100.12
2018-06-19T01:23:47.803Z,101.15
2018-06-19T01:26:16.563Z,101.58
2018-06-19T01:28:45.616Z,101.10
2018-06-19T01:31:14.666Z,103.20
2018-06-19T01:33:43.683Z,101.10
2018-06-19T01:36:12.728Z,99.10
2018-06-19T01:38:41.729Z,101.62
2018-06-19T01:41:10.799Z,99.07
2018-06-19T01:43:39.811Z,103.17
2018-06-19T01:46:08.829Z,103.25
2018-06-19T01:48:37.880Z,102.82
2018-06-19T01:51:06.927Z,104.55
2018-06-19T01:53:35.960Z,103.47
2018-06-19T01:56:05.039Z,105.25
2018-06-19T01:58:34.051Z,104.38
2018-06-19T02:01:03.219Z,106.03
2018-06-19T02:03:32.244Z,104.27
2018-06-19T02:06:01.251Z,109.10
2018-06-19T02:08:30.287Z,109.40
2018-06-19T02:10:59.315Z,105.72
2018-06-19T02:13:28.361Z,109.45
2018-06-19T02:15:57.380Z,106.87
2018-06-19T02:18:26.431Z,108.83
2018-06-19T02:20:55.491Z,108.87
2018-06-19T02:23:24.504Z,110.22
2018-06-19T02:25:53.580Z,108.40
2018-06-19T02:28:22.595Z,110.75
2018-06-19T02:30:51.708Z,106.70
2018-06-19T02:33:20.748Z,107.25
2018-06-19T02:35:49.815Z,108.50
2018-06-19T02:38:19.374Z,106.47
2018-06-19T02:40:48.449Z,111.40
2018-06-19T02:43:17.456Z,108.85
2018-06-19T02:45:46.507Z,108.07
2018-06-19T02:48:15.522Z,108.30
2018-06-19T02:50:44.568Z,110.65
2018-06-19T02:53:13.624Z,110.55
2018-06-19T02:55:43.014Z,106.07
2018-06-19T02:58:12.031Z,110.52
2018-06-19T03:00:41.045Z,109.35
2018-06-19T03:03:10.093Z,109.07
2018-06-19T03:05:39.107Z,106.55
2018-06-19T03:08:08.146Z,110.92
2018-06-19T03:10:37.231Z,107.72
2018-06-19T03:13:06.272Z,107.22
2018-06-19T03:15:35.295Z,107.25
2018-06-19T03:18:04.369Z,106.07
2018-06-19T03:20:33.390Z,107.22
2018-06-19T03:23:02.437Z,109.40
2018-06-19T03:25:31.531Z,110.78
2018-06-19T03:28:00.287Z,108.20
2018-06-19T03:30:29.361Z,110.22
2018-06-19T03:32:58.357Z,107.43
2018-06-19T03:35:27.380Z,105.70
2018-06-19T03:37:56.419Z,105.32
2018-06-19T03:40:25.435Z,106.43
2018-06-19T03:42:54.523Z,108.25
2018-06-19T03:45:23.534Z,106.37
2018-06-19T03:47:52.585Z,104.65
2018-06-19T03:50:21.629Z,105.12
2018-06-19T03:52:50.679Z,103.00
2018-06-19T03:55:19.700Z,104.90
2018-06-19T03:57:48.771Z,104.23
2018-06-19T04:00:17.891Z,105.27
2018-06-19T04:02:46.928Z,101.30
2018-06-19T04:05:15.946Z,100.53
2018-06-19T04:07:45.009Z,102.47
2018-06-19T04:10:14.088Z,100.87
2018-06-19T04:12:43.220Z,100.02
2018-06-19T04:15:12.266Z,104.50
2018-06-19T04:17:41.311Z,105.67
2018-06-19T04:20:10.051Z,100.67
2018-06-19T04:22:39.008Z,101.82
2018-06-19T04:25:08.031Z,103.58
2018-06-19T04:27:37.078Z,107.50
2018-06-19T04:30:06.144Z,105.07
2018-06-19T04:32:35.206Z,102.02
2018-06-19T04:35:04.284Z,105.85
2018-06-19T04:37:33.327Z,102.27
2018-06-19T04:40:02.364Z,103.85
2018-06-19T04:42:31.404Z,103.62
2018-06-19T04:45:00.416Z,101.10
2018-06-19T04:47:29.465Z,101.20
2018-06-19T04:49:58.520Z,99.97
2018-06-19T04:52:27.564Z,101.85
2018-06-19T04:54:56.595Z,100.30
2018-06-19T04:57:25.635Z,100.33
2018-06-19T04:59:54.649Z,101.67
2018-06-19T05:02:23.728Z,99.75
2018-06-19T05:04:52.759Z,100.18
2018-06-19T05:07:21.809Z,103.53
2018-06-19T05:09:50.824Z,99.87
2018-06-19T05:12:19.875Z,97.20
2018-06-19T05:14:48.896Z,96.95
2018-06-19T05:17:17.977Z,98.40
2018-06-19T05:19:47.093Z,98.67
2018-06-19T05:22:16.132Z,95.70
2018-06-19T05:24:45.176Z,96.57
2018-06-19T05:27:14.231Z,102.75
2018-06-19T05:29:43.249Z,95.45
2018-06-19T05:32:12.296Z,95.22
2018-06-19T05:34:41.344Z,95.97
2018-06-19T05:37:10.400Z,95.87
2018-06-19T05:39:39.415Z,91.67
2018-06-19T05:42:08.478Z,96.87
2018-06-19T05:44:37.484Z,93.30
2018-06-19T05:47:06.623Z,96.72
2018-06-19T05:49:35.644Z,94.15
2018-06-19T05:52:04.713Z,97.53
2018-06-19T05:54:34.241Z,96.12
2018-06-19T05:57:03.319Z,94.75
2018-06-19T05:59:32.407Z,95.77
2018-06-19T06:02:01.440Z,94.50
2018-06-19T06:04:30.528Z,96.15
2018-06-19T06:06:59.540Z,96.08
2018-06-19T06:09:28.594Z,97.08
2018-06-19T06:11:57.601Z,95.05
2018-06-19T06:14:26.649Z,94.37
2018-06-19T06:16:55.676Z,92.37
2018-06-19T06:19:24.886Z,94.42
2018-06-19T06:21:54.252Z,94.65
2018-06-19T06:24:23.352Z,95.77
2018-06-19T06:26:52.144Z,93.60
2018-06-19T06:29:21.105Z,100.33
2018-06-19T06:31:50.225Z,97.37
2018-06-19T06:34:19.279Z,94.72
2018-06-19T06:36:48.301Z,94.00
2018-06-19T06:39:17.512Z,92.22
2018-06-19T06:41:46.579Z,93.78
2018-06-19T06:44:15.647Z,93.45
2018-06-19T06:46:44.747Z,92.30
2018-06-19T06:49:13.825Z,94.83
2018-06-19T06:51:42.860Z,94.90
2018-06-19T06:54:11.937Z,92.40
2018-06-19T06:56:41.012Z,95.72
2018-06-19T06:59:10.271Z,93.43
2018-06-19T07:01:39.414Z,91.70
2018-06-19T07:04:08.813Z,90.20
2018-06-19T07:06:37.965Z,94.90
2018-06-19T07:09:09.096Z,97.23
2018-06-19T07:11:38.244Z,90.37
2018-06-19T07:14:07.788Z,91.67
2018-06-19T07:16:37.245Z,90.73
2018-06-19T07:19:06.611Z,91.37
2018-06-19T07:21:35.718Z,92.93
2018-06-19T07:24:04.545Z,93.00
2018-06-19T07:26:33.857Z,91.73
2018-06-19T07:29:03.493Z,89.63
2018-06-19T07:31:32.559Z,93.17
2018-06-19T07:34:01.691Z,95.43
2018-06-19T07:36:30.758Z,91.83
2018-06-19T07:38:59.882Z,93.10
2018-06-19T07:41:29.081Z,90.40
2018-06-19T07:43:58.389Z,91.03
2018-06-19T07:46:27.519Z,94.47
2018-06-19T07:48:56.580Z,91.40
2018-06-19T07:51:25.650Z,91.93
2018-06-19T07:53:55.862Z,90.50
2018-06-19T07:56:25.054Z,92.00
2018-06-19T07:58:54.370Z,91.87
2018-06-19T08:01:23.629Z,93.33
2018-06-19T08:03:52.993Z,91.27
2018-06-19T08:06:22.448Z,90.10
2018-06-19T08:08:51.581Z,91.30
2018-06-19T08:11:20.912Z,91.90
2018-06-19T08:13:50.035Z,89.90
2018-06-19T08:16:19.423Z,91.70
2018-06-19T08:18:48.681Z,90.57
2018-06-19T08:21:18.078Z,97.40
2018-06-19T08:23:47.335Z,87.70
2018-06-19T08:26:16.486Z,88.20
2018-06-19T08:28:45.996Z,86.60
2018-06-19T08:31:15.360Z,89.33
2018-06-19T08:33:44.652Z,88.20
2018-06-19T08:36:14.343Z,87.27
2018-06-19T08:38:43.907Z,90.63
2018-06-19T08:41:13.400Z,89.20
2018-06-19T08:43:43.825Z,88.03
2018-06-19T08:46:13.261Z,87.37
2018-06-19T08:48:42.363Z,89.00
2018-06-19T08:51:11.620Z,88.00
2018-06-19T08:53:40.744Z,85.23
2018-06-19T08:56:09.523Z,86.60
2018-06-19T08:58:38.279Z,89.27
2018-06-19T09:01:07.537Z,89.93
2018-06-19T09:03:36.673Z,86.90
2018-06-19T09:06:05.801Z,87.67
2018-06-19T09:08:35.414Z,89.67
2018-06-19T09:11:04.603Z,87.87
2018-06-19T09:13:33.708Z,87.93
2018-06-19T09:16:02.862Z,86.17
2018-06-19T09:18:32.087Z,88.40
2018-06-19T09:21:01.352Z,88.97
2018-06-19T09:23:30.534Z,88.77
2018-06-19T09:25:59.656Z,87.87
2018-06-19T09:28:29.017Z,90.53
2018-06-19T09:30:58.154Z,88.40
2018-06-19T09:33:29.317Z,87.07
2018-06-19T09:35:58.371Z,88.83
2018-06-19T09:38:27.459Z,87.10
2018-06-19T09:40:56.650Z,88.63
2018-06-19T09:43:25.755Z,93.50
2018-06-19T09:45:55.079Z,86.87
2018-06-19T09:48:24.653Z,86.27
2018-06-19T09:50:54.890Z,87.40
2018-06-19T09:53:24.575Z,90.63
2018-06-19T09:55:54.247Z,88.50
2018-06-19T09:58:24.564Z,88.00
2018-06-19T10:00:56.360Z,89.30
2018-06-19T10:03:28.804Z,87.60
2018-06-19T10:05:59.297Z,86.87
2018-06-19T10:08:30.231Z,86.10
2018-06-19T10:11:00.283Z,86.70
2018-06-19T10:13:32.559Z,88.50
2018-06-19T10:16:01.685Z,85.67
2018-06-19T10:18:30.877Z,85.80
2018-06-19T10:20:59.931Z,88.50
2018-06-19T10:23:29.191Z,89.10
2018-06-19T10:25:59.787Z,88.63
2018-06-19T10:28:29.251Z,82.43
2018-06-19T10:30:58.968Z,86.20
2018-06-19T10:33:28.040Z,85.30
2018-06-19T10:35:57.122Z,87.30
2018-06-19T10:38:25.861Z,84.37
2018-06-19T10:40:54.977Z,83.10
2018-06-19T10:43:24.001Z,86.43
2018-06-19T10:45:53.190Z,82.37
2018-06-19T10:48:22.500Z,82.87
2018-06-19T10:50:51.562Z,87.20
2018-06-19T10:53:20.588Z,86.80
2018-06-19T10:55:49.923Z,84.33
2018-06-19T10:58:19.299Z,85.50
2018-06-19T11:00:48.319Z,88.87
2018-06-19T11:03:17.403Z,84.47
2018-06-19T11:05:46.464Z,84.43
2018-06-19T11:08:15.548Z,86.87
2018-06-19T11:10:44.631Z,85.47
2018-06-19T11:13:13.699Z,84.87
2018-06-19T11:15:42.727Z,85.70
2018-06-19T11:18:11.756Z,84.23
2018-06-19T11:20:40.829Z,84.30
2018-06-19T11:23:09.888Z,86.17
2018-06-19T11:25:38.960Z,85.73
2018-06-19T11:28:08.012Z,86.77
2018-06-19T11:30:37.068Z,87.07
2018-06-19T11:33:06.169Z,87.40
2018-06-19T11:35:35.293Z,87.17
2018-06-19T11:38:04.356Z,86.50
2018-06-19T11:40:33.383Z,90.83
2018-06-19T11:43:02.468Z,85.93
2018-06-19T11:45:31.505Z,83.87
2018-06-19T11:48:00.559Z,84.57
2018-06-19T11:50:29.568Z,85.90
2018-06-19T11:52:59.232Z,87.80
2018-06-19T11:55:28.252Z,87.33
2018-06-19T11:57:57.262Z,86.67
2018-06-19T12:00:26.362Z,87.07
2018-06-19T12:02:55.492Z,84.00
2018-06-19T12:05:24.500Z,85.03
2018-06-19T12:07:53.591Z,85.97
2018-06-19T12:10:22.713Z,84.00
2018-06-19T12:12:51.724Z,88.50
2018-06-19T12:15:21.088Z,86.10
2018-06-19T12:17:50.111Z,85.30
2018-06-19T12:20:19.128Z,87.40
2018-06-19T12:22:48.180Z,84.23
2018-06-19T12:25:17.264Z,85.37
2018-06-19T12:27:46.359Z,84.13
2018-06-19T12:30:15.378Z,84.87
2018-06-19T12:32:44.433Z,83.53
2018-06-19T12:35:14.389Z,87.30
2018-06-19T12:37:43.434Z,84.93
2018-06-19T12:40:12.462Z,83.67
2018-06-19T12:42:41.560Z,83.37
2018-06-19T12:45:10.651Z,85.27
2018-06-19T12:47:39.724Z,86.13
2018-06-19T12:52:21.511Z,81.63
2018-06-19T12:55:14.063Z,82.70
2018-06-19T12:57:43.175Z,83.60
2018-06-19T13:00:12.759Z,83.83
2018-06-19T13:02:51.780Z,83.20
2018-06-19T13:05:32.102Z,82.57
2018-06-19T13:08:01.147Z,84.30
2018-06-19T13:10:30.213Z,83.73
2018-06-19T13:13:35.150Z,86.23
2018-06-19T13:16:04.212Z,85.90
2018-06-19T13:18:44.928Z,85.17
2018-06-19T13:21:13.667Z,86.70
2018-06-19T13:23:42.731Z,88.40
2018-06-19T13:26:11.720Z,84.43
2018-06-19T13:29:53.300Z,85.87
2018-06-19T13:32:22.838Z,84.20
2018-06-19T13:34:51.999Z,82.90
2018-06-19T13:37:21.118Z,85.10
2018-06-19T13:42:02.855Z,81.97
2018-06-19T13:44:43.119Z,82.13
2018-06-19T13:47:12.196Z,81.13
2018-06-19T13:49:41.273Z,82.30
2018-06-19T13:52:10.301Z,79.63
2018-06-19T13:54:39.371Z,80.20
2018-06-19T13:57:50.139Z,81.43
2018-06-19T14:00:20.576Z,80.07
2018-06-19T14:02:49.893Z,80.57
2018-06-19T14:05:19.749Z,79.97
2018-06-19T14:08:03.613Z,80.37
2018-06-19T14:13:03.121Z,81.33
2018-06-19T14:15:35.712Z,80.80
2018-06-19T14:18:05.287Z,81.57
2018-06-19T14:20:34.411Z,81.87
2018-06-19T14:23:03.503Z,82.97
2018-06-19T14:25:32.523Z,80.87
2018-06-19T14:28:01.601Z,81.83
2018-06-19T14:30:30.660Z,81.47
2018-06-19T14:32:59.688Z,80.43
2018-06-19T14:35:28.765Z,84.30
2018-06-19T14:37:57.797Z,84.70
2018-06-19T14:40:26.908Z,84.33
2018-06-19T14:42:55.976Z,83.23
2018-06-19T14:45:25.293Z,84.90
2018-06-19T14:47:54.327Z,84.77
2018-06-19T14:50:23.472Z,85.13
2018-06-19T14:52:52.502Z,84.77
2018-06-19T14:55:21.563Z,83.10
2018-06-19T14:57:50.690Z,82.03
2018-06-19T15:00:19.988Z,85.07
2018-06-19T15:02:49.038Z,84.53
2018-06-19T15:05:18.658Z,81.50
2018-06-19T15:07:51.626Z,80.47
2018-06-19T15:10:20.944Z,83.73
2018-06-19T15:12:50.051Z,85.10
2018-06-19T15:15:19.099Z,84.47
2018-06-19T15:17:48.108Z,84.07
2018-06-19T15:20:17.459Z,84.77
2018-06-19T15:22:46.536Z,84.10
2018-06-19T15:25:15.633Z,83.30
2018-06-19T15:27:44.679Z,82.73
2018-06-19T15:30:13.733Z,83.73
2018-06-19T15:32:42.928Z,82.97
2018-06-19T15:35:12.212Z,84.03
2018-06-19T15:37:41.334Z,85.17
2018-06-19T15:40:10.465Z,82.97
2018-06-19T15:42:39.223Z,82.20
2018-06-19T15:45:08.273Z,82.97
2018-06-19T15:47:37.306Z,82.40
2018-06-19T15:50:06.647Z,84.03
2018-06-19T15:52:35.781Z,86.50
2018-06-19T15:55:04.896Z,84.30
2018-06-19T15:57:33.976Z,83.37
2018-06-19T16:00:03.135Z,83.70
2018-06-19T16:02:32.190Z,83.43
2018-06-19T16:05:01.248Z,84.07
2018-06-19T16:07:30.515Z,82.97
2018-06-19T16:09:59.589Z,84.10
2018-06-19T16:12:28.656Z,84.00
2018-06-19T16:14:57.726Z,85.50
2018-06-19T16:17:26.886Z,84.87
2018-06-19T16:19:55.991Z,82.77
2018-06-19T16:22:25.056Z,82.57
2018-06-19T16:24:54.192Z,84.90
2018-06-19T16:27:23.339Z,84.40
2018-06-19T16:29:52.428Z,86.17
2018-06-19T16:32:21.514Z,84.90
2018-06-19T16:34:50.525Z,87.57
2018-06-19T16:37:19.628Z,86.90
2018-06-19T16:39:48.765Z,83.07
2018-06-19T16:42:17.539Z,83.80
2018-06-19T16:44:46.698Z,83.90
2018-06-19T16:47:15.985Z,84.40
2018-06-19T16:49:44.995Z,83.90
2018-06-19T16:52:14.850Z,83.83
2018-06-19T16:54:44.011Z,81.50
2018-06-19T16:57:13.069Z,86.60
2018-06-19T16:59:42.171Z,81.47
2018-06-19T17:02:11.314Z,80.40
2018-06-19T17:04:40.385Z,82.43
2018-06-19T17:07:09.825Z,81.73
2018-06-19T17:09:38.633Z,82.70
2018-06-19T17:12:07.667Z,81.40
2018-06-19T17:14:36.818Z,83.50
2018-06-19T17:17:05.667Z,84.10
2018-06-19T17:19:34.686Z,81.50
2018-06-19T17:22:03.793Z,82.17
2018-06-19T17:24:32.866Z,82.27
2018-06-19T17:27:01.873Z,80.77
2018-06-19T17:29:30.998Z,85.77
2018-06-19T17:32:00.093Z,83.57
2018-06-19T17:34:29.112Z,83.47
2018-06-19T17:36:58.168Z,82.87
2018-06-19T17:39:27.207Z,81.73
2018-06-19T17:41:56.270Z,82.17
2018-06-19T17:44:25.471Z,83.77
2018-06-19T17:46:54.653Z,81.87
2018-06-19T17:49:36.390Z,84.10
2018-06-19T17:52:05.471Z,80.40
2018-06-19T17:54:34.557Z,83.00
2018-06-19T17:57:03.701Z,84.60
2018-06-19T17:59:32.751Z,82.53
2018-06-19T18:02:01.957Z,80.67
2018-06-19T18:04:31.093Z,81.77
2018-06-19T18:07:00.327Z,82.83
2018-06-19T18:09:29.417Z,81.77
2018-06-19T18:11:58.609Z,81.43
2018-06-19T18:14:27.733Z,83.90
2018-06-19T18:16:57.052Z,80.10
2018-06-19T18:19:26.157Z,81.10
2018-06-19T18:21:55.324Z,79.23
2018-06-19T18:24:24.866Z,80.37
2018-06-19T18:26:53.919Z,90.80
2018-06-19T18:29:23.212Z,80.93
2018-06-19T18:32:05.744Z,81.47
2018-06-19T18:34:38.998Z,83.20
2018-06-19T18:37:11.064Z,80.37
2018-06-19T18:39:40.265Z,82.67
2018-06-19T18:42:09.968Z,80.23
2018-06-19T18:44:38.937Z,80.07
2018-06-19T18:47:07.962Z,80.57
2018-06-19T18:49:36.928Z,81.30
2018-06-19T18:52:06.130Z,80.87
2018-06-19T18:54:35.194Z,83.33
2018-06-19T18:57:04.344Z,81.50
2018-06-19T18:59:33.443Z,83.43
2018-06-19T19:02:02.515Z,83.50
2018-06-19T19:04:31.548Z,81.03
2018-06-19T19:07:00.736Z,81.77
2018-06-19T19:09:29.953Z,83.27
2018-06-19T19:11:59.235Z,80.60
2018-06-19T19:14:32.713Z,83.00
2018-06-19T19:17:07.161Z,82.37
2018-06-19T19:19:36.380Z,83.37
2018-06-19T19:22:05.531Z,79.47
2018-06-19T19:24:34.639Z,80.07
2018-06-19T19:27:09.008Z,79.40
2018-06-19T19:29:43.670Z,80.03
2018-06-19T19:32:12.827Z,79.50
2018-06-19T19:34:42.060Z,80.22
2018-06-19T19:39:23.068Z,78.97
2018-06-19T19:41:52.501Z,76.22
2018-06-19T19:44:21.906Z,79.00
2018-06-19T19:46:56.509Z,77.47
2018-06-19T19:49:25.695Z,78.52
2018-06-19T19:51:54.919Z,77.58
2018-06-19T19:54:24.098Z,77.35
2018-06-19T19:56:58.465Z,80.95
2018-06-19T19:59:27.681Z,75.03
2018-06-19T20:01:56.894Z,74.90
2018-06-19T20:04:26.089Z,75.12
2018-06-19T20:06:54.924Z,74.25
2018-06-19T20:09:23.899Z,74.72
2018-06-19T20:11:52.996Z,75.37
2018-06-19T20:14:22.226Z,74.62
2018-06-19T20:16:51.388Z,75.35
2018-06-19T20:19:20.665Z,74.72
2018-06-19T20:21:49.671Z,76.45
2018-06-19T20:24:18.931Z,74.53
2018-06-19T20:26:48.147Z,78.00
2018-06-19T20:29:17.391Z,76.00
2018-06-19T20:31:46.629Z,73.87
2018-06-19T20:34:17.686Z,74.62
2018-06-19T20:36:47.269Z,74.20
2018-06-19T20:39:16.475Z,75.22
2018-06-19T20:41:45.886Z,75.10
2018-06-19T20:44:15.508Z,77.25
2018-06-19T20:46:44.677Z,75.28
2018-06-19T20:49:13.849Z,75.70
2018-06-19T20:51:43.418Z,74.87
2018-06-19T20:54:12.230Z,75.37
2018-06-19T20:56:41.346Z,75.20
2018-06-19T20:59:10.590Z,78.42
2018-06-19T21:01:39.782Z,74.85
2018-06-19T21:04:08.971Z,74.45
2018-06-19T21:06:38.088Z,75.12
2018-06-19T21:09:08.227Z,77.05
2018-06-19T21:11:37.418Z,75.28
2018-06-19T21:14:06.548Z,75.75
2018-06-19T21:16:36.004Z,76.15
2018-06-19T21:19:05.089Z,74.58
2018-06-19T21:21:34.286Z,76.12
2018-06-19T21:24:03.389Z,76.07
2018-06-19T21:26:32.489Z,75.78
2018-06-19T21:29:01.551Z,79.30
2018-06-19T21:31:30.659Z,75.65
2018-06-19T21:33:59.741Z,76.67
2018-06-19T21:36:28.856Z,74.80
2018-06-19T21:38:57.859Z,76.33
2018-06-19T21:41:26.867Z,75.10
2018-06-19T21:43:56.314Z,75.35
2018-06-19T21:46:25.332Z,78.05
2018-06-19T21:48:54.414Z,76.22
2018-06-19T21:51:23.489Z,75.83
2018-06-19T21:53:52.659Z,76.30
2018-06-19T21:56:21.743Z,78.30
2018-06-19T21:58:50.776Z,76.00
2018-06-19T22:01:19.836Z,77.10
2018-06-19T22:03:49.214Z,77.20
2018-06-19T22:06:18.135Z,76.55
2018-06-19T22:08:51.782Z,77.05
2018-06-19T22:11:21.348Z,78.90
2018-06-19T22:13:50.076Z,77.55
2018-06-19T22:16:19.035Z,77.42
2018-06-19T22:18:48.147Z,76.77
2018-06-19T22:21:17.191Z,78.28
2018-06-19T22:23:46.263Z,78.55
2018-06-19T22:26:15.274Z,80.90
2018-06-19T22:28:44.360Z,79.65
2018-06-19T22:31:13.438Z,76.25
2018-06-19T22:33:42.492Z,81.72
2018-06-19T22:36:11.517Z,77.65
2018-06-19T22:38:40.603Z,79.27
2018-06-19T22:41:09.647Z,76.45
2018-06-19T22:43:38.711Z,75.90
2018-06-19T22:46:07.743Z,76.25
2018-06-19T22:48:36.780Z,79.03
2018-06-19T22:51:05.900Z,78.47
2018-06-19T22:53:34.964Z,80.32
2018-06-19T22:56:04.025Z,77.05
2018-06-19T22:58:33.065Z,76.72
2018-06-19T23:01:02.104Z,76.45
2018-06-19T23:03:31.183Z,76.75
2018-06-19T23:06:00.256Z,77.10
2018-06-19T23:08:33.899Z,77.82
2018-06-19T23:11:03.067Z,77.92
2018-06-19T23:13:32.156Z,76.97
2018-06-19T23:16:01.246Z,79.03
2018-06-19T23:18:30.303Z,78.57
2018-06-19T23:20:59.344Z,78.07
2018-06-19T23:23:28.390Z,78.17
2018-06-19T23:25:57.428Z,80.62
2018-06-19T23:28:26.468Z,80.57
2018-06-19T23:30:55.476Z,77.97
2018-06-19T23:33:24.530Z,80.53
2018-06-19T23:35:53.571Z,77.90
2018-06-19T23:38:22.608Z,79.37
2018-06-19T23:40:51.712Z,80.40
2018-06-19T23:43:20.715Z,80.67
2018-06-19T23:45:49.747Z,81.57
2018-06-19T23:48:18.798Z,79.72
2018-06-19T23:50:47.844Z,78.33
2018-06-19T23:53:16.852Z,85.77
2018-06-19T23:55:45.924Z,79.12
2018-06-19T23:58:14.938Z,79.30
